Terminal Aerodrome Forecast
Issued by NWS Des Moines, IA

Home | Current Version | Previous Version | Text Only | Print | Product List | Glossary On
Versions: 1 2 3 4 5 6 7 8 9 10 11 12 13 14 15 16 17 18 19 20 21 22 23 24 25
000
FTUS43 KDMX 281140
TAFALO
TAF
KALO 281140Z 2812/0112 14004KT P6SM SKC
     FM282000 16010KT P6SM SCT022 BKN040
     FM282300 16009KT P6SM OVC022=

USA.gov is the U.S. government's official web portal to all federal, state and local government web resources and services.